Time;durP1;ratioP1;P1;durP2;ratioP2;P2;SDS_P1;SDS_P2;PMS_P1;PMS_P2;Temp;Humidity;BMP_temperature;BMP_pressure;BME280_temperature;BME280_humidity;BME280_pressure;Samples;Min_cycle;Max_cycle;Signal;HPM_P1;HPM_P2
2022/11/21 00:00:51;;;;;;;7.72;4.47;;;230.50;2252.80;;;;;;6249701;22;19999;-85
2022/11/21 00:03:17;;;;;;;8.63;5.43;;;230.40;2252.80;;;;;;6249928;22;20062;-82
2022/11/21 00:05:47;;;;;;;6.60;3.88;;;230.50;2252.80;;;;;;6249343;22;20007;-82
2022/11/21 00:08:15;;;;;;;7.75;2.97;;;230.40;2252.80;;;;;;6277343;22;19999;-83
2022/11/21 00:10:42;;;;;;;4.53;2.65;;;205.70;2252.80;;;;;;6249627;22;20007;-82
2022/11/21 00:13:18;;;;;;;5.13;3.28;;;205.60;2252.80;;;;;;6277168;22;20019;-84
2022/11/21 00:15:45;;;;;;;6.80;3.17;;;205.60;2252.80;;;;;;6249826;22;20026;-84
2022/11/21 00:18:11;;;;;;;5.82;3.40;;;205.60;2252.80;;;;;;6250169;22;20000;-81
2022/11/21 00:20:38;;;;;;;9.95;5.38;;;205.50;2252.80;;;;;;6249519;22;20016;-83
2022/11/21 00:23:04;;;;;;;11.80;7.25;;;205.50;2252.80;;;;;;6249749;22;20075;-82
2022/11/21 00:25:30;;;;;;;10.88;3.92;;;205.40;2252.80;;;;;;6277209;22;20024;-83
2022/11/21 00:27:56;;;;;;;6.80;3.40;;;205.40;2252.80;;;;;;6272226;22;19999;-82
2022/11/21 00:30:21;;;;;;;12.10;4.68;;;205.30;2252.80;;;;;;6278299;22;20011;-83
2022/11/21 00:32:47;;;;;;;6.82;3.45;;;205.30;2252.80;;;;;;6277852;22;20392;-80
2022/11/21 00:35:13;;;;;;;8.05;3.58;;;205.20;2252.80;;;;;;6277545;22;20010;-83
2022/11/21 00:37:38;;;;;;;6.25;2.92;;;205.20;2252.80;;;;;;6250038;22;20079;-85
2022/11/21 00:40:05;;;;;;;8.30;4.32;;;205.20;2252.80;;;;;;6250189;22;20077;-79
2022/11/21 00:42:31;;;;;;;5.07;3.25;;;205.20;2252.80;;;;;;6250023;22;20000;-81
2022/11/21 00:44:57;;;;;;;9.10;4.32;;;205.20;2252.80;;;;;;6275685;22;20012;-76
2022/11/21 00:47:23;;;;;;;10.18;5.40;;;205.20;2252.80;;;;;;6249619;22;20337;-78
2022/11/21 00:49:49;;;;;;;8.60;5.32;;;205.20;1945.60;;;;;;6248010;22;20004;-77
2022/11/21 00:52:16;;;;;;;6.90;4.15;;;205.20;2252.80;;;;;;6249660;22;20074;-78
2022/11/21 00:54:42;;;;;;;5.35;3.35;;;205.10;1920.00;;;;;;6250119;22;20490;-81
2022/11/21 00:57:07;;;;;;;5.80;2.95;;;205.10;2252.80;;;;;;6276976;22;20032;-82
2022/11/21 00:59:33;;;;;;;4.97;3.17;;;205.00;2252.80;;;;;;6276283;22;20000;-81
2022/11/21 01:01:59;;;;;;;4.65;2.35;;;204.90;2252.80;;;;;;6249446;22;19995;-82
2022/11/21 01:04:25;;;;;;;4.22;2.22;;;204.90;2252.80;;;;;;6249377;22;20003;-81
2022/11/21 01:06:51;;;;;;;3.63;1.90;;;204.90;2252.80;;;;;;6249678;22;20034;-81
2022/11/21 01:09:16;;;;;;;4.70;2.40;;;204.90;2252.80;;;;;;6249770;22;20388;-82
2022/11/21 01:11:42;;;;;;;5.00;3.05;;;204.90;2252.80;;;;;;6276164;22;20002;-80
2022/11/21 01:14:08;;;;;;;3.60;2.10;;;204.90;2252.80;;;;;;6249418;22;20433;-81
2022/11/21 01:16:33;;;;;;;4.25;2.20;;;204.90;2252.80;;;;;;6251085;22;20351;-82
2022/11/21 01:19:00;;;;;;;3.33;1.90;;;204.90;2252.80;;;;;;6249995;22;20019;-79
2022/11/21 01:21:30;;;;;;;4.07;2.17;;;205.00;2252.80;;;;;;6251775;22;20000;-80
2022/11/21 01:23:59;;;;;;;4.47;2.67;;;205.00;2252.80;;;;;;6251708;22;20050;-82
2022/11/21 01:26:27;;;;;;;4.50;2.22;;;205.00;2124.80;;;;;;6251274;22;20405;-81
2022/11/21 01:28:53;;;;;;;3.70;1.75;;;205.10;2252.80;;;;;;6250697;22;20049;-82
2022/11/21 01:31:25;;;;;;;4.45;2.63;;;205.00;2252.80;;;;;;6251601;22;20027;-81
2022/11/21 01:33:51;;;;;;;4.28;2.40;;;205.00;2252.80;;;;;;6249871;22;20000;-82
2022/11/21 01:36:20;;;;;;;4.13;2.13;;;205.00;2252.80;;;;;;6278208;22;20014;-81
2022/11/21 01:38:48;;;;;;;4.65;3.00;;;205.10;2252.80;;;;;;6251543;22;20086;-79
2022/11/21 01:41:18;;;;;;;5.72;3.30;;;205.10;2252.80;;;;;;6251170;22;20437;-81
2022/11/21 01:43:46;;;;;;;4.88;2.67;;;205.10;2252.80;;;;;;6251673;22;20006;-78
2022/11/21 01:46:14;;;;;;;3.58;2.22;;;205.10;2252.80;;;;;;6251425;22;20011;-81
2022/11/21 01:48:43;;;;;;;5.75;2.78;;;205.20;2252.80;;;;;;6278258;22;20003;-81
2022/11/21 01:51:15;;;;;;;5.15;2.72;;;205.20;2252.80;;;;;;6278530;22;20125;-78
2022/11/21 01:53:46;;;;;;;5.63;3.77;;;205.20;2252.80;;;;;;6251186;22;19995;-82
2022/11/21 01:56:13;;;;;;;9.05;3.88;;;205.20;2252.80;;;;;;6251554;22;20000;-80
2022/11/21 01:58:42;;;;;;;6.43;3.20;;;205.20;2252.80;;;;;;6251376;22;20006;-78
2022/11/21 02:01:08;;;;;;;6.93;3.88;;;205.20;2252.80;;;;;;6250804;22;20027;-81
2022/11/21 02:03:37;;;;;;;5.22;2.70;;;205.20;2201.60;;;;;;6251253;22;20047;-79
2022/11/21 02:06:05;;;;;;;5.88;3.10;;;205.40;2252.80;;;;;;6251302;22;20008;-81
2022/11/21 02:08:31;;;;;;;4.28;1.90;;;205.10;2252.80;;;;;;6250790;22;20038;-80
2022/11/21 02:11:19;;;;;;;3.97;2.28;;;205.10;2252.80;;;;;;6251252;22;20029;-80
2022/11/21 02:13:44;;;;;;;8.77;4.45;;;205.10;2252.80;;;;;;6251231;22;20010;-80
2022/11/21 02:16:10;;;;;;;8.93;3.97;;;205.20;2252.80;;;;;;6251118;22;20090;-80
2022/11/21 02:18:36;;;;;;;5.38;3.13;;;205.20;2252.80;;;;;;6251035;22;20003;-80
2022/11/21 02:21:10;;;;;;;7.15;3.38;;;205.20;2252.80;;;;;;6251108;22;20413;-81
2022/11/21 02:23:48;;;;;;;6.47;3.38;;;205.20;2252.80;;;;;;6250834;22;20002;-82
2022/11/21 02:26:14;;;;;;;6.18;3.55;;;205.10;2252.80;;;;;;6251021;22;20007;-81
2022/11/21 02:28:40;;;;;;;4.35;2.45;;;205.10;2150.40;;;;;;6250301;22;20014;-82
2022/11/21 02:31:06;;;;;;;4.30;2.50;;;205.00;2252.80;;;;;;6250958;22;20006;-78
2022/11/21 02:33:31;;;;;;;4.93;2.60;;;205.00;2252.80;;;;;;6251008;22;20078;-82
2022/11/21 02:35:59;;;;;;;9.10;5.05;;;205.10;2252.80;;;;;;6250130;22;20003;-80
2022/11/21 02:38:45;;;;;;;5.72;3.22;;;205.00;2252.80;;;;;;6250962;22;20010;-82
2022/11/21 02:41:27;;;;;;;5.80;3.17;;;204.90;2252.80;;;;;;6275855;22;20010;-81
2022/11/21 02:44:01;;;;;;;5.53;2.33;;;205.10;2252.80;;;;;;6250607;22;20010;-81
2022/11/21 02:46:27;;;;;;;4.05;2.08;;;205.00;2252.80;;;;;;6250734;22;20701;-82
2022/11/21 02:48:55;;;;;;;4.90;2.40;;;204.80;2252.80;;;;;;6251038;22;20026;-81
2022/11/21 02:51:21;;;;;;;8.02;3.47;;;204.90;2252.80;;;;;;6250572;22;20444;-80
2022/11/21 02:53:46;;;;;;;4.75;2.53;;;204.90;2252.80;;;;;;6277987;22;20004;-82
2022/11/21 02:56:12;;;;;;;4.82;2.30;;;204.80;2252.80;;;;;;6250969;22;20031;-81
2022/11/21 02:58:38;;;;;;;5.68;3.03;;;204.90;2252.80;;;;;;6250376;22;20022;-80
2022/11/21 03:01:04;;;;;;;6.53;3.65;;;204.90;2252.80;;;;;;6277527;22;20000;-82
2022/11/21 03:03:29;;;;;;;11.35;4.38;;;204.90;2252.80;;;;;;6250397;22;20429;-81
2022/11/21 03:05:56;;;;;;;8.30;3.92;;;205.00;2252.80;;;;;;6277357;22;20401;-82
2022/11/21 03:08:21;;;;;;;6.10;3.20;;;204.90;2252.80;;;;;;6277984;22;20000;-81
2022/11/21 03:10:47;;;;;;;5.93;2.90;;;204.90;2252.80;;;;;;6250160;22;20042;-79
2022/11/21 03:13:13;;;;;;;4.18;2.40;;;205.00;2252.80;;;;;;6250496;22;20084;-81
2022/11/21 03:15:39;;;;;;;4.13;2.22;;;205.00;2252.80;;;;;;6250615;22;20025;-82
2022/11/21 03:18:04;;;;;;;3.30;2.30;;;204.90;2252.80;;;;;;6250203;22;20409;-78
2022/11/21 03:20:33;;;;;;;7.90;2.30;;;204.90;2099.20;;;;;;6277857;22;20090;-81
2022/11/21 03:22:59;;;;;;;4.75;2.67;;;204.80;2252.80;;;;;;6250597;22;20329;-80
2022/11/21 03:25:24;;;;;;;3.75;1.80;;;204.80;2252.80;;;;;;6249850;22;20008;-80
2022/11/21 03:27:52;;;;;;;4.88;2.53;;;204.80;2252.80;;;;;;6250189;22;20368;-79
2022/11/21 03:30:19;;;;;;;4.03;2.05;;;180.10;2252.80;;;;;;6250500;22;20425;-80
2022/11/21 03:32:45;;;;;;;4.78;2.33;;;180.10;2252.80;;;;;;6250005;22;20061;-79
2022/11/21 03:35:11;;;;;;;3.83;1.90;;;180.10;2252.80;;;;;;6250370;22;20006;-80
2022/11/21 03:37:37;;;;;;;6.05;2.22;;;180.00;2252.80;;;;;;6250455;22;20008;-81
2022/11/21 03:40:03;;;;;;;4.10;1.98;;;180.00;2252.80;;;;;;6249670;22;20074;-80
2022/11/21 03:42:29;;;;;;;4.50;2.25;;;180.00;2252.80;;;;;;6277502;22;20010;-83
2022/11/21 03:44:55;;;;;;;5.40;2.92;;;180.00;2252.80;;;;;;6250331;22;20004;-81
2022/11/21 03:47:21;;;;;;;3.50;1.77;;;180.00;2252.80;;;;;;6250038;22;20054;-81
2022/11/21 03:49:47;;;;;;;5.50;3.08;;;179.70;2252.80;;;;;;6250307;22;20638;-80
2022/11/21 03:52:13;;;;;;;4.85;2.38;;;179.70;2252.80;;;;;;6277454;22;20038;-81
2022/11/21 03:54:38;;;;;;;3.10;1.58;;;179.80;2252.80;;;;;;6249972;22;20004;-79
2022/11/21 03:57:04;;;;;;;3.80;1.90;;;179.70;2252.80;;;;;;6250194;22;20000;-82
2022/11/21 03:59:30;;;;;;;4.78;2.45;;;179.60;2252.80;;;;;;6249905;22;20000;-82
2022/11/21 04:01:55;;;;;;;5.05;2.90;;;179.60;2252.80;;;;;;6250184;22;20325;-82
2022/11/21 04:04:21;;;;;;;5.38;2.35;;;179.60;2252.80;;;;;;6250277;22;20034;-84
2022/11/21 04:06:47;;;;;;;6.53;3.13;;;179.60;2252.80;;;;;;6251517;22;20061;-83
2022/11/21 04:09:13;;;;;;;5.10;2.40;;;179.60;2252.80;;;;;;6279101;22;20003;-83
2022/11/21 04:11:38;;;;;;;7.25;3.05;;;179.60;2252.80;;;;;;6251477;22;19996;-83
2022/11/21 04:14:04;;;;;;;4.95;2.60;;;179.50;2252.80;;;;;;6278057;22;19995;-83
2022/11/21 04:16:30;;;;;;;4.03;2.00;;;179.40;2252.80;;;;;;6252224;22;20058;-83
2022/11/21 04:18:56;;;;;;;3.05;1.63;;;179.40;2252.80;;;;;;6250433;22;20082;-81
2022/11/21 04:21:22;;;;;;;3.60;1.90;;;179.30;2252.80;;;;;;6277107;22;20071;-79
2022/11/21 04:23:47;;;;;;;4.00;2.80;;;179.30;2252.80;;;;;;6276986;22;20073;-80
2022/11/21 04:26:13;;;;;;;4.68;2.15;;;179.40;2124.80;;;;;;6249896;22;20090;-80
2022/11/21 04:28:39;;;;;;;6.03;2.35;;;179.30;2252.80;;;;;;6249658;22;19999;-82
2022/11/21 04:31:06;;;;;;;6.68;2.90;;;179.20;2099.20;;;;;;6277123;22;20049;-81
2022/11/21 04:33:32;;;;;;;4.28;2.35;;;179.20;2252.80;;;;;;6250129;22;20082;-81
2022/11/21 04:35:58;;;;;;;5.55;2.67;;;179.20;2252.80;;;;;;6248756;22;20008;-82
2022/11/21 04:38:24;;;;;;;5.18;2.60;;;179.20;2252.80;;;;;;6250044;22;20006;-82
2022/11/21 04:40:50;;;;;;;7.00;4.22;;;179.30;2252.80;;;;;;6248666;22;20045;-82
2022/11/21 04:43:16;;;;;;;9.13;4.85;;;179.30;2201.60;;;;;;6249268;22;20004;-82
2022/11/21 04:45:43;;;;;;;6.85;3.70;;;154.50;2252.80;;;;;;6250022;22;20003;-82
2022/11/21 04:48:09;;;;;;;7.78;4.38;;;179.20;2176.00;;;;;;6250117;22;20008;-81
2022/11/21 04:50:35;;;;;;;6.78;2.78;;;179.50;2252.80;;;;;;6250331;22;20414;-81
2022/11/21 04:53:01;;;;;;;4.25;1.73;;;154.50;2252.80;;;;;;6252013;22;20023;-82
2022/11/21 04:55:30;;;;;;;5.88;2.28;;;154.50;2252.80;;;;;;6251516;22;20010;-87
2022/11/21 04:57:56;;;;;;;14.70;6.93;;;154.50;2252.80;;;;;;6252013;22;20004;-78
2022/11/21 05:00:22;;;;;;;9.55;4.78;;;154.50;2252.80;;;;;;6251541;22;20432;-78
2022/11/21 05:02:48;;;;;;;7.50;3.97;;;154.40;2252.80;;;;;;6278738;22;20007;-81
2022/11/21 05:05:14;;;;;;;8.32;4.78;;;154.40;2252.80;;;;;;6251813;22;20430;-83
2022/11/21 05:07:40;;;;;;;6.25;3.05;;;154.40;2252.80;;;;;;6251781;22;20000;-82
2022/11/21 05:10:06;;;;;;;8.80;3.67;;;154.40;2252.80;;;;;;6251416;22;20004;-83
2022/11/21 05:15:17;;;;;;;10.10;4.53;;;154.30;2252.80;;;;;;6278613;22;20467;-79
2022/11/21 05:17:43;;;;;;;7.53;3.67;;;154.30;2252.80;;;;;;6278424;22;19999;-80
2022/11/21 05:20:10;;;;;;;9.07;3.67;;;154.30;2252.80;;;;;;6251368;22;20110;-80
2022/11/21 05:22:35;;;;;;;7.45;3.08;;;154.20;2252.80;;;;;;6251634;22;19996;-84
2022/11/21 05:25:01;;;;;;;6.40;3.47;;;154.10;2252.80;;;;;;6251236;22;20000;-83
2022/11/21 05:27:27;;;;;;;6.78;3.45;;;154.20;2252.80;;;;;;6251664;22;20010;-82
2022/11/21 05:29:54;;;;;;;7.90;4.35;;;154.20;2252.80;;;;;;6251441;22;20000;-79
2022/11/21 05:32:20;;;;;;;6.65;3.42;;;154.40;1868.80;;;;;;6251410;22;20000;-81
2022/11/21 05:34:45;;;;;;;8.68;3.92;;;154.40;2201.60;;;;;;6251618;22;20030;-80
2022/11/21 05:37:11;;;;;;;18.50;9.18;;;154.40;2252.80;;;;;;6251435;22;20086;-81
2022/11/21 05:39:37;;;;;;;13.27;6.65;;;154.40;2252.80;;;;;;6251111;22;20003;-83
2022/11/21 05:42:03;;;;;;;14.55;7.47;;;154.30;2252.80;;;;;;6251509;22;20325;-81
2022/11/21 05:44:29;;;;;;;30.90;15.70;;;154.40;2252.80;;;;;;6251254;22;20050;-83
2022/11/21 05:46:55;;;;;;;17.15;10.52;;;154.50;2252.80;;;;;;6250997;22;20003;-83
2022/11/21 05:49:20;;;;;;;10.02;5.90;;;154.50;2252.80;;;;;;6251517;22;20007;-82
2022/11/21 05:51:46;;;;;;;12.05;5.82;;;154.50;2252.80;;;;;;6251129;22;20003;-83
2022/11/21 05:54:15;;;;;;;13.50;6.50;;;154.40;2252.80;;;;;;6251344;22;19996;-83
2022/11/21 05:56:41;;;;;;;11.57;7.43;;;154.40;2252.80;;;;;;6251269;22;20004;-81
2022/11/21 05:59:09;;;;;;;9.57;5.05;;;154.30;2252.80;;;;;;6250934;22;20004;-83
2022/11/21 06:04:19;;;;;;;9.82;5.15;;;154.30;2252.80;;;;;;6278106;22;20034;-85
2022/11/21 06:06:45;;;;;;;11.48;5.88;;;154.30;2252.80;;;;;;6250826;22;20352;-84
2022/11/21 06:09:11;;;;;;;11.48;6.03;;;154.20;2252.80;;;;;;6278498;22;19999;-83
2022/11/21 06:11:37;;;;;;;7.22;2.90;;;154.20;2252.80;;;;;;6251255;22;20081;-83
2022/11/21 06:14:03;;;;;;;5.32;3.08;;;154.00;2252.80;;;;;;6277803;22;19992;-80
2022/11/21 06:16:28;;;;;;;7.38;3.92;;;154.20;2176.00;;;;;;6251226;22;20007;-84
2022/11/21 06:18:54;;;;;;;5.78;3.20;;;154.30;2252.80;;;;;;6250825;22;20053;-82
2022/11/21 06:21:23;;;;;;;8.68;5.45;;;154.30;2252.80;;;;;;6250693;22;20009;-84
2022/11/21 06:23:57;;;;;;;9.82;5.85;;;154.30;2252.80;;;;;;6252505;22;20000;-83
2022/11/21 06:26:26;;;;;;;12.15;7.10;;;154.40;2252.80;;;;;;6250814;22;19999;-84
2022/11/21 06:28:52;;;;;;;7.28;4.80;;;154.30;2252.80;;;;;;6251118;22;20000;-84
2022/11/21 06:31:20;;;;;;;9.25;5.85;;;154.30;2252.80;;;;;;6251112;22;20008;-84
2022/11/21 06:33:46;;;;;;;12.05;6.72;;;154.30;2252.80;;;;;;6250381;22;20003;-82
2022/11/21 06:36:15;;;;;;;23.65;12.85;;;154.20;2252.80;;;;;;6251161;22;20007;-85
2022/11/21 06:38:41;;;;;;;23.10;13.40;;;154.40;2252.80;;;;;;6251104;22;20004;-84
2022/11/21 06:41:17;;;;;;;19.27;11.98;;;154.40;2252.80;;;;;;6250598;22;20118;-83
2022/11/21 06:43:43;;;;;;;17.30;9.63;;;154.40;2252.80;;;;;;6278192;22;19996;-83
2022/11/21 06:46:10;;;;;;;15.60;10.48;;;154.40;2252.80;;;;;;6250730;22;20046;-80
2022/11/21 06:48:36;;;;;;;30.10;16.67;;;154.40;2252.80;;;;;;6250583;22;20007;-84
2022/11/21 06:51:07;;;;;;;19.95;12.30;;;154.40;2252.80;;;;;;6250844;22;20004;-85
2022/11/21 06:53:34;;;;;;;17.23;11.60;;;154.40;2252.80;;;;;;6250917;22;20023;-84
2022/11/21 06:56:01;;;;;;;10.20;6.30;;;154.50;2252.80;;;;;;6250520;22;20006;-86
2022/11/21 06:58:28;;;;;;;13.55;8.52;;;154.40;2252.80;;;;;;6277531;22;19996;-84
2022/11/21 07:00:54;;;;;;;14.57;8.85;;;154.50;2252.80;;;;;;6250719;22;20329;-84
2022/11/21 07:03:21;;;;;;;18.00;11.93;;;154.50;2252.80;;;;;;6250370;22;20487;-83
2022/11/21 07:05:47;;;;;;;16.90;11.05;;;179.20;2252.80;;;;;;6277766;22;20495;-83
2022/11/21 07:08:13;;;;;;;15.85;9.07;;;179.20;2252.80;;;;;;6277769;22;19996;-82
2022/11/21 07:10:40;;;;;;;14.10;9.40;;;179.20;2252.80;;;;;;6250380;22;20003;-84
2022/11/21 07:13:20;;;;;;;8.82;5.53;;;154.30;2252.80;;;;;;6249588;22;20081;-85
2022/11/21 07:15:51;;;;;;;10.48;6.57;;;154.50;2252.80;;;;;;6249901;22;20008;-83
2022/11/21 07:18:17;;;;;;;13.82;8.30;;;179.20;2252.80;;;;;;6249489;22;20002;-82
2022/11/21 07:20:43;;;;;;;11.75;7.93;;;179.40;2252.80;;;;;;6244830;23;20020;-85
2022/11/21 07:23:09;;;;;;;8.48;5.43;;;179.20;2252.80;;;;;;6245085;22;20061;-84
2022/11/21 07:25:35;;;;;;;7.05;4.55;;;179.20;2252.80;;;;;;6245486;22;20364;-83
2022/11/21 07:28:01;;;;;;;7.55;5.22;;;179.20;2252.80;;;;;;6246897;22;20409;-85
2022/11/21 07:30:28;;;;;;;8.75;5.95;;;179.40;2252.80;;;;;;6244916;23;20426;-80
2022/11/21 07:33:03;;;;;;;8.70;6.18;;;179.50;2252.80;;;;;;6245326;22;20004;-81
2022/11/21 07:35:29;;;;;;;9.82;5.90;;;179.40;2252.80;;;;;;6245363;22;20004;-81
2022/11/21 07:37:54;;;;;;;10.90;7.38;;;179.50;2252.80;;;;;;6245175;22;20000;-82
2022/11/21 07:40:20;;;;;;;9.43;6.50;;;179.60;2252.80;;;;;;6246990;22;19996;-81
2022/11/21 07:42:46;;;;;;;9.38;5.93;;;179.60;2252.80;;;;;;6245521;22;20022;-84
2022/11/21 07:45:13;;;;;;;10.35;7.18;;;179.60;2252.80;;;;;;6244113;22;20307;-82
2022/11/21 07:47:39;;;;;;;11.63;9.10;;;179.70;2252.80;;;;;;6245629;22;20015;-81
2022/11/21 07:50:06;;;;;;;11.98;9.00;;;179.60;2252.80;;;;;;6244001;22;20004;-80
2022/11/21 07:52:32;;;;;;;9.63;7.80;;;179.60;2252.80;;;;;;6244874;22;20004;-80
2022/11/21 07:55:01;;;;;;;8.43;6.57;;;179.70;2252.80;;;;;;6245429;22;20034;-83
2022/11/21 07:57:27;;;;;;;8.50;5.68;;;179.70;2252.80;;;;;;6244962;22;20000;-84
2022/11/21 07:59:53;;;;;;;8.73;5.72;;;179.70;2252.80;;;;;;6246546;22;20051;-82
2022/11/21 08:02:21;;;;;;;9.88;6.78;;;179.80;2252.80;;;;;;6245160;22;20042;-81
2022/11/21 08:04:47;;;;;;;36.88;21.85;;;179.90;2252.80;;;;;;6246323;22;20004;-83
2022/11/21 08:07:18;;;;;;;26.35;15.68;;;179.90;2252.80;;;;;;6245113;22;20000;-83
2022/11/21 08:09:44;;;;;;;12.80;8.63;;;180.00;2252.80;;;;;;6245148;22;20013;-83
2022/11/21 08:12:10;;;;;;;10.63;6.85;;;179.90;2252.80;;;;;;6244885;22;20421;-81
2022/11/21 08:14:37;;;;;;;9.40;6.43;;;180.00;2252.80;;;;;;6246431;22;19996;-84
2022/11/21 08:17:03;;;;;;;9.57;6.05;;;180.10;2252.80;;;;;;6245278;22;20004;-82
2022/11/21 08:19:29;;;;;;;14.65;10.57;;;180.10;2252.80;;;;;;6260695;22;20011;-83
2022/11/21 08:21:55;;;;;;;9.25;6.93;;;180.10;2252.80;;;;;;6250181;22;20474;-84
2022/11/21 08:24:21;;;;;;;10.25;6.07;;;204.80;2252.80;;;;;;6276849;22;20410;-83
2022/11/21 08:26:47;;;;;;;14.57;9.77;;;204.80;2252.80;;;;;;6251425;22;20034;-84
2022/11/21 08:29:16;;;;;;;16.02;11.15;;;204.90;2252.80;;;;;;6279373;22;20023;-82
2022/11/21 08:31:43;;;;;;;14.63;9.70;;;205.10;2252.80;;;;;;6252210;22;20007;-83
2022/11/21 08:34:10;;;;;;;28.65;17.15;;;205.10;2252.80;;;;;;6278916;22;20000;-82
2022/11/21 08:36:36;;;;;;;18.17;11.20;;;205.10;2252.80;;;;;;6279188;22;20030;-84
2022/11/21 08:39:03;;;;;;;20.83;13.43;;;205.10;2252.80;;;;;;6252040;22;19995;-81
2022/11/21 08:44:13;;;;;;;15.90;9.45;;;205.20;2252.80;;;;;;6278879;22;20010;-83
2022/11/21 08:46:38;;;;;;;16.98;11.13;;;205.20;2252.80;;;;;;6251381;22;20011;-83
2022/11/21 08:49:05;;;;;;;15.68;9.45;;;205.20;2252.80;;;;;;6252064;22;20011;-83
2022/11/21 08:51:32;;;;;;;14.30;8.20;;;205.20;2252.80;;;;;;6252044;22;20000;-83
2022/11/21 08:53:58;;;;;;;18.33;11.05;;;205.40;2252.80;;;;;;6251512;22;20031;-81
2022/11/21 08:56:24;;;;;;;32.35;22.25;;;205.30;2252.80;;;;;;6251960;22;20006;-82
2022/11/21 08:58:50;;;;;;;28.23;20.83;;;205.20;2252.80;;;;;;6251817;22;20008;-82
2022/11/21 09:01:16;;;;;;;18.75;15.27;;;205.30;2252.80;;;;;;6251169;22;20084;-82
2022/11/21 09:03:42;;;;;;;16.80;12.05;;;205.30;2252.80;;;;;;6251726;22;19996;-81
2022/11/21 09:06:08;;;;;;;11.70;8.38;;;205.40;2252.80;;;;;;6278370;22;20004;-82
2022/11/21 09:08:34;;;;;;;12.35;8.85;;;205.50;2252.80;;;;;;6251613;22;20003;-82
2022/11/21 09:11:08;;;;;;;22.13;12.25;;;205.50;2252.80;;;;;;6251800;22;20440;-83
2022/11/21 09:13:34;;;;;;;21.42;10.88;;;205.40;2252.80;;;;;;6279343;22;20447;-83
2022/11/21 09:18:46;;;;;;;12.00;8.05;;;205.50;2252.80;;;;;;6278263;22;20023;-83
2022/11/21 09:21:16;;;;;;;12.77;8.32;;;205.50;2252.80;;;;;;6251746;22;19996;-85
2022/11/21 09:23:42;;;;;;;15.93;8.98;;;205.50;2252.80;;;;;;6251391;22;20551;-82
2022/11/21 09:26:08;;;;;;;16.90;8.35;;;205.50;2252.80;;;;;;6251349;22;20090;-80
2022/11/21 09:28:37;;;;;;;17.05;10.30;;;205.60;2252.80;;;;;;6251128;22;20036;-81
2022/11/21 09:31:04;;;;;;;13.73;8.23;;;205.60;2252.80;;;;;;6251387;22;20042;-83
2022/11/21 09:33:30;;;;;;;14.07;8.50;;;205.70;2252.80;;;;;;6251645;22;20010;-85
2022/11/21 09:36:00;;;;;;;13.48;7.93;;;205.70;2252.80;;;;;;6251292;22;20035;-84
2022/11/21 09:38:26;;;;;;;18.10;11.00;;;205.70;2252.80;;;;;;6251671;22;20356;-84
2022/11/21 09:41:50;;;;;;;15.82;9.13;;;230.50;2252.80;;;;;;6248801;22;20325;-84
2022/11/21 09:44:24;;;;;;;24.48;13.18;;;230.40;2252.80;;;;;;6277436;22;20078;-84
2022/11/21 09:46:54;;;;;;;15.35;9.25;;;230.40;2252.80;;;;;;6227042;22;20012;-84
2022/11/21 09:49:23;;;;;;;15.82;9.30;;;230.60;2252.80;;;;;;6277516;22;19992;-82
2022/11/21 09:51:51;;;;;;;14.63;8.05;;;230.60;2252.80;;;;;;6251197;22;20053;-87
2022/11/21 09:54:30;;;;;;;17.25;8.73;;;230.50;2252.80;;;;;;6250826;22;20007;-84
2022/11/21 09:56:56;;;;;;;12.18;6.60;;;230.50;2252.80;;;;;;6250532;22;20053;-82
2022/11/21 09:59:38;;;;;;;10.13;5.90;;;230.50;2252.80;;;;;;6250845;22;20008;-82
2022/11/21 10:02:15;;;;;;;9.30;6.88;;;230.40;2252.80;;;;;;6277335;22;19999;-80
2022/11/21 10:04:42;;;;;;;12.95;10.05;;;230.40;2252.80;;;;;;6277651;22;20021;-82
2022/11/21 10:07:30;;;;;;;13.70;9.85;;;230.40;2252.80;;;;;;6250591;22;20437;-80
2022/11/21 10:10:23;;;;;;;50.55;27.20;;;230.50;2252.80;;;;;;6250939;22;20031;-78
2022/11/21 10:13:10;;;;;;;36.88;18.88;;;230.60;2252.80;;;;;;6250873;22;20050;-78
2022/11/21 10:15:56;;;;;;;21.40;12.93;;;230.60;2252.80;;;;;;6277936;22;20003;-81
2022/11/21 10:18:32;;;;;;;13.55;7.88;;;230.70;2252.80;;;;;;6287634;22;19995;-82
2022/11/21 10:21:18;;;;;;;11.30;7.13;;;230.80;2252.80;;;;;;6263760;22;20004;-83
2022/11/21 10:24:00;;;;;;;11.40;7.75;;;230.80;2252.80;;;;;;6176901;22;20097;-81
2022/11/21 10:26:48;;;;;;;12.45;8.40;;;230.80;2252.80;;;;;;6257031;22;20006;-80
2022/11/21 10:29:35;;;;;;;13.65;9.35;;;230.80;2252.80;;;;;;6305588;22;19983;-79
2022/11/21 10:32:17;;;;;;;13.07;8.88;;;230.80;2252.80;;;;;;6278575;22;20008;-80
2022/11/21 10:34:44;;;;;;;12.35;8.32;;;230.90;2252.80;;;;;;6251087;22;20321;-82
2022/11/21 10:37:18;;;;;;;9.35;6.70;;;230.90;2252.80;;;;;;6250489;22;20008;-82
2022/11/21 10:39:48;;;;;;;17.33;10.40;;;230.90;2252.80;;;;;;6249579;22;20032;-82
2022/11/21 10:42:24;;;;;;;16.80;10.55;;;230.90;2252.80;;;;;;6248224;22;19999;-81
2022/11/21 10:47:36;;;;;;;23.83;15.48;;;230.90;2252.80;;;;;;6275450;22;20329;-82
2022/11/21 10:50:08;;;;;;;19.83;12.15;;;230.90;2252.80;;;;;;6250192;22;20038;-81
2022/11/21 10:56:17;;;;;;;24.60;16.27;;;230.90;2252.80;;;;;;6277291;22;20459;-80
2022/11/21 10:58:45;;;;;;;26.95;18.60;;;230.80;2252.80;;;;;;6250614;22;20356;-80
2022/11/21 11:01:25;;;;;;;38.90;28.65;;;230.80;2252.80;;;;;;6277343;22;20003;-80
2022/11/21 11:04:16;;;;;;;43.05;29.98;;;230.80;2252.80;;;;;;6250465;22;20049;-78
2022/11/21 11:06:45;;;;;;;52.10;34.13;;;230.90;2252.80;;;;;;6232989;22;20003;-80
2022/11/21 11:09:29;;;;;;;35.60;24.42;;;230.90;2252.80;;;;;;6250526;22;20014;-79
2022/11/21 11:12:19;;;;;;;13.70;9.95;;;231.10;2252.80;;;;;;6250320;22;20302;-80
2022/11/21 11:14:54;;;;;;;16.10;11.93;;;231.00;2252.80;;;;;;6249721;22;20074;-78
2022/11/21 11:17:31;;;;;;;18.92;13.82;;;231.10;2252.80;;;;;;6250497;22;20003;-78
2022/11/21 11:20:25;;;;;;;12.82;9.13;;;231.10;2252.80;;;;;;6250053;22;20344;-82
2022/11/21 11:22:52;;;;;;;14.05;11.57;;;231.10;2252.80;;;;;;6247593;22;20062;-85
2022/11/21 11:25:18;;;;;;;23.40;19.80;;;231.20;2252.80;;;;;;6250010;22;20004;-83
2022/11/21 11:27:43;;;;;;;33.38;26.13;;;231.30;2252.80;;;;;;6249548;22;20039;-87
2022/11/21 11:30:15;;;;;;;46.22;34.67;;;231.20;2252.80;;;;;;6250094;22;20004;-83
2022/11/21 11:32:41;;;;;;;35.90;25.60;;;231.20;2252.80;;;;;;6250003;22;20419;-83
2022/11/21 11:35:15;;;;;;;20.42;16.75;;;231.20;2252.80;;;;;;6249305;22;20007;-84
2022/11/21 11:37:42;;;;;;;28.73;22.85;;;231.20;2252.80;;;;;;6248824;22;20025;-85
2022/11/21 11:40:40;;;;;;;30.52;25.23;;;231.20;2252.80;;;;;;6249075;22;20004;-83
2022/11/21 11:52:38;;;;;;;14.55;11.18;;;231.20;2252.80;;;;;;6276909;22;20053;-83
2022/11/21 11:55:20;;;;;;;16.30;11.38;;;231.30;2252.80;;;;;;6250238;22;20474;-86
2022/11/21 11:57:48;;;;;;;28.48;17.95;;;231.20;2252.80;;;;;;6249980;22;20439;-81
2022/11/21 12:00:31;;;;;;;21.00;13.15;;;231.20;2252.80;;;;;;6249273;22;19995;-83
2022/11/21 12:03:20;;;;;;;24.75;17.88;;;231.20;2252.80;;;;;;6249711;22;20433;-83
2022/11/21 12:05:57;;;;;;;23.25;18.65;;;231.10;2252.80;;;;;;6249214;22;20091;-83
2022/11/21 12:08:53;;;;;;;29.60;21.60;;;231.10;2252.80;;;;;;6277196;22;19999;-82
2022/11/21 12:18:10;;;;;;;33.92;24.45;;;231.10;2252.80;;;;;;6277495;22;20046;-88
2022/11/21 12:21:20;;;;;;;25.35;20.33;;;231.10;2252.80;;;;;;6250579;22;20433;-86
2022/11/21 12:23:52;;;;;;;29.65;24.48;;;231.10;2252.80;;;;;;6100914;23;20006;-88
2022/11/21 12:26:21;;;;;;;15.13;11.15;;;231.10;2252.80;;;;;;6101235;23;20021;-86
2022/11/21 12:29:00;;;;;;;17.85;14.07;;;231.10;2252.80;;;;;;6180767;22;20037;-86
2022/11/21 12:31:37;;;;;;;21.83;16.30;;;231.20;2252.80;;;;;;6251025;22;20413;-87
2022/11/21 12:34:13;;;;;;;31.27;20.98;;;231.00;2252.80;;;;;;6251218;22;20062;-85
2022/11/21 12:36:50;;;;;;;31.55;21.65;;;231.10;2252.80;;;;;;6250329;22;20012;-82
2022/11/21 12:39:34;;;;;;;23.52;17.85;;;231.10;2252.80;;;;;;6249086;22;20082;-84
2022/11/21 12:45:15;;;;;;;21.25;14.77;;;231.10;2252.80;;;;;;6276037;22;20014;-84
2022/11/21 12:54:30;;;;;;;21.13;14.02;;;231.00;2252.80;;;;;;6276661;22;20358;-83
2022/11/21 12:57:01;;;;;;;22.77;15.48;;;231.00;2252.80;;;;;;6250349;22;20035;-82
2022/11/21 12:59:30;;;;;;;18.10;13.15;;;231.30;2252.80;;;;;;6249798;22;20053;-85
2022/11/21 13:02:17;;;;;;;22.02;14.77;;;256.30;2252.80;;;;;;6247920;22;20003;-85
2022/11/21 13:04:46;;;;;;;18.33;13.63;;;256.40;2252.80;;;;;;6249808;22;20054;-83